Time;durP1;ratioP1;P1;durP2;ratioP2;P2;SDS_P1;SDS_P2;PMS_P1;PMS_P2;Temp;Humidity;BMP_temperature;BMP_pressure;BME280_temperature;BME280_humidity;BME280_pressure;Samples;Min_cycle;Max_cycle;Signal;HPM_P1;HPM_P2
2022/03/22 00:01:35;;;;;;;80.10;47.40;;;;;;;1.28;49.48;101023.11;104897;1268;61205;-69
2022/03/22 00:04:03;;;;;;;76.10;47.70;;;;;;;1.18;49.57;101026.05;104946;1268;69407;-70
2022/03/22 00:06:30;;;;;;;76.10;47.50;;;;;;;1.10;49.89;101030.74;104707;1268;72874;-70
2022/03/22 00:08:57;;;;;;;78.00;47.20;;;;;;;1.03;49.93;101031.77;104935;1268;61381;-69
2022/03/22 00:11:23;;;;;;;79.30;46.10;;;;;;;0.96;50.13;101030.68;104905;1268;61236;-70
2022/03/22 00:13:50;;;;;;;78.90;46.30;;;;;;;0.93;50.24;101029.09;105048;1268;76023;-69
2022/03/22 00:16:17;;;;;;;82.10;48.50;;;;;;;0.91;50.23;101030.47;104921;1268;61291;-69
2022/03/22 00:18:43;;;;;;;80.70;48.10;;;;;;;0.85;50.47;101028.34;104690;1271;72229;-70
2022/03/22 00:21:09;;;;;;;83.30;48.40;;;;;;;0.80;50.55;101029.36;104938;1268;61164;-71
2022/03/22 00:23:36;;;;;;;77.10;47.20;;;;;;;0.80;50.81;101025.34;104971;1269;61319;-71
2022/03/22 00:26:03;;;;;;;79.10;46.00;;;;;;;0.82;51.04;101026.40;105283;1268;61246;-71
2022/03/22 00:28:30;;;;;;;70.70;44.00;;;;;;;0.89;51.14;101023.12;105309;1268;69312;-71
2022/03/22 00:30:58;;;;;;;72.00;43.00;;;;;;;1.00;51.23;101019.84;105007;1271;73302;-71
2022/03/22 00:33:24;;;;;;;81.20;46.90;;;;;;;1.10;51.26;101019.73;105063;1268;61299;-69
2022/03/22 00:35:51;;;;;;;82.10;51.20;;;;;;;1.22;51.35;101014.16;104923;1267;61297;-71
2022/03/22 00:38:18;;;;;;;79.60;49.90;;;;;;;1.33;51.60;101007.54;105272;1268;61195;-70
2022/03/22 00:40:46;;;;;;;79.20;49.90;;;;;;;1.45;51.53;101006.54;105208;1268;69386;-69
2022/03/22 00:43:13;;;;;;;80.30;47.60;;;;;;;1.57;51.27;101002.36;104982;1268;73708;-69
2022/03/22 00:45:41;;;;;;;80.20;48.70;;;;;;;1.65;51.12;101000.79;105066;1268;61254;-71
2022/03/22 00:48:13;;;;;;;75.90;47.90;;;;;;;1.69;51.13;100998.34;105249;1268;61815;-70
2022/03/22 00:50:47;;;;;;;72.20;45.50;;;;;;;1.71;51.08;100996.77;104815;1269;75667;-73
2022/03/22 00:53:15;;;;;;;78.20;47.50;;;;;;;1.65;50.98;100997.11;104764;1268;69805;-70
2022/03/22 00:55:43;;;;;;;76.80;48.40;;;;;;;1.56;50.95;101000.77;104324;1268;589020;-70
2022/03/22 00:58:10;;;;;;;85.10;50.50;;;;;;;1.44;51.27;101003.19;105095;1268;61370;-71
2022/03/22 01:00:38;;;;;;;80.80;50.60;;;;;;;1.27;51.55;101007.87;105289;1268;61165;-70
2022/03/22 01:03:06;;;;;;;79.60;50.50;;;;;;;1.11;51.54;101008.52;104799;1268;72652;-70
2022/03/22 01:05:35;;;;;;;79.60;48.00;;;;;;;0.97;51.55;101015.63;104910;1268;69276;-70
2022/03/22 01:08:03;;;;;;;73.10;46.50;;;;;;;0.85;51.58;101012.42;105107;1268;73236;-72
2022/03/22 01:10:31;;;;;;;75.30;45.30;;;;;;;0.75;51.74;101011.50;104957;1268;61326;-72
2022/03/22 01:12:58;;;;;;;77.10;46.00;;;;;;;0.65;52.04;101013.89;105140;1271;61237;-69
2022/03/22 01:15:32;;;;;;;75.00;44.10;;;;;;;0.57;52.10;101012.79;105382;1268;75073;-70
2022/03/22 01:18:03;;;;;;;74.70;45.80;;;;;;;0.49;52.13;101010.47;105304;1268;70452;-71
2022/03/22 01:20:33;;;;;;;72.30;45.70;;;;;;;0.41;52.44;101012.34;104887;1266;73341;-71
2022/03/22 01:23:02;;;;;;;74.40;44.30;;;;;;;0.33;52.50;101008.27;105107;1268;61272;-69
2022/03/22 01:25:30;;;;;;;70.60;44.50;;;;;;;0.26;52.71;101008.38;105034;1268;61291;-70
2022/03/22 01:27:58;;;;;;;80.60;48.70;;;;;;;0.19;52.76;101006.41;105040;1268;76274;-70
2022/03/22 01:30:25;;;;;;;77.90;45.70;;;;;;;0.13;53.04;101007.92;104918;1268;69157;-70
2022/03/22 01:32:54;;;;;;;79.50;47.70;;;;;;;0.07;53.07;101011.02;104889;1268;75032;-70
2022/03/22 01:35:22;;;;;;;82.20;49.80;;;;;;;-0.01;53.48;101009.73;104941;1268;61419;-70
2022/03/22 01:37:49;;;;;;;81.00;48.30;;;;;;;-0.10;53.78;101009.30;105267;1268;61369;-69
2022/03/22 01:40:18;;;;;;;84.20;49.20;;;;;;;-0.18;53.93;101008.54;105008;1268;75461;-71
2022/03/22 01:42:45;;;;;;;81.30;48.80;;;;;;;-0.25;53.88;101009.35;105609;1268;70527;-69
2022/03/22 01:45:12;;;;;;;78.00;47.10;;;;;;;-0.31;53.87;101011.73;104931;1268;73369;-70
2022/03/22 01:47:40;;;;;;;87.40;50.50;;;;;;;-0.36;54.23;101009.77;105062;1268;61349;-69
2022/03/22 01:50:10;;;;;;;88.20;52.30;;;;;;;-0.41;54.30;101009.54;105273;1268;61230;-70
2022/03/22 01:52:42;;;;;;;;;;;;;;;-0.48;54.53;101005.98;105009;1268;75208;-70
2022/03/22 01:55:13;;;;;;;78.80;44.50;;;;;;;-0.55;54.79;101004.67;104906;1268;68935;-69
2022/03/22 01:57:40;;;;;;;83.10;47.60;;;;;;;-0.60;54.90;101004.98;104910;1268;73420;-69
2022/03/22 02:00:11;;;;;;;80.10;46.30;;;;;;;-0.64;55.06;101004.39;104995;1268;61370;-69
2022/03/22 02:08:11;;;;;;;80.50;47.70;;;;;;;-0.54;55.62;100993.86;104924;1268;69757;-71
2022/03/22 02:10:38;;;;;;;80.60;49.80;;;;;;;-0.56;55.60;100997.52;105013;1268;73159;-71
2022/03/22 02:13:05;;;;;;;81.60;49.80;;;;;;;-0.58;55.91;100997.30;105343;1268;61382;-71
2022/03/22 02:15:32;;;;;;;79.10;48.20;;;;;;;-0.53;56.20;100998.23;105149;1268;61179;-71
2022/03/22 02:17:59;;;;;;;77.30;48.50;;;;;;;-0.49;56.24;100998.80;105186;1268;75364;-69
2022/03/22 02:20:27;;;;;;;84.60;50.00;;;;;;;-0.51;56.51;101000.02;105132;1268;69132;-71
2022/03/22 02:23:14;;;;;;;83.40;50.50;;;;;;;-0.55;56.83;101001.36;105082;1268;73325;-69
2022/03/22 02:25:40;;;;;;;73.20;47.50;;;;;;;-0.58;57.04;101002.02;104888;1268;61381;-69
2022/03/22 02:28:07;;;;;;;76.30;47.60;;;;;;;-0.60;57.14;100998.86;104910;1268;61263;-69
2022/03/22 02:30:33;;;;;;;76.80;48.10;;;;;;;-0.61;57.23;101002.87;104908;1268;61382;-70
2022/03/22 02:33:01;;;;;;;77.40;50.00;;;;;;;-0.64;57.25;101001.08;104848;1271;61292;-70
2022/03/22 02:35:30;;;;;;;77.20;47.90;;;;;;;-0.67;57.59;100996.52;105237;1268;74245;-71
2022/03/22 02:37:57;;;;;;;77.30;47.50;;;;;;;-0.70;57.64;100999.09;105042;1268;61476;-70
2022/03/22 02:40:27;;;;;;;78.60;49.00;;;;;;;-0.75;57.86;100999.41;104917;1268;62940;-70
2022/03/22 02:42:54;;;;;;;82.60;48.30;;;;;;;-0.83;58.03;100997.73;104909;1268;75277;-70
2022/03/22 02:45:23;;;;;;;83.60;47.90;;;;;;;-0.90;58.11;100996.08;105082;1268;67944;-71
2022/03/22 02:47:50;;;;;;;71.30;44.90;;;;;;;-0.94;58.20;100997.08;105154;1268;72482;-71
2022/03/22 02:50:17;;;;;;;84.40;49.30;;;;;;;-0.98;58.62;101001.39;104943;1269;61272;-69
2022/03/22 02:52:48;;;;;;;80.70;49.70;;;;;;;-1.01;58.75;101005.71;105051;1268;61152;-70
2022/03/22 02:55:15;;;;;;;80.10;49.10;;;;;;;-1.04;59.00;101000.27;104908;1268;76214;-69
2022/03/22 02:57:43;;;;;;;81.10;47.40;;;;;;;-1.07;59.07;101003.90;104218;1268;1002881;-69
2022/03/22 03:00:28;;;;;;;74.50;42.90;;;;;;;-1.06;59.58;101001.11;104711;1272;73198;-69
2022/03/22 03:02:55;;;;;;;72.70;46.40;;;;;;;-0.97;60.04;101002.11;105012;1269;61295;-69
2022/03/22 03:05:22;;;;;;;75.00;45.90;;;;;;;-0.83;60.00;100999.66;104920;1268;61259;-69
2022/03/22 03:07:50;;;;;;;79.30;48.30;;;;;;;-0.74;59.86;101002.90;105080;1268;75105;-70
2022/03/22 03:10:17;;;;;;;81.40;48.80;;;;;;;-0.67;59.95;101002.80;105369;1269;69807;-69
2022/03/22 03:12:44;;;;;;;84.60;47.80;;;;;;;-0.63;60.03;101004.75;104692;1271;72819;-69
2022/03/22 03:15:11;;;;;;;78.70;48.00;;;;;;;-0.63;59.96;101010.36;104718;1272;61307;-70
2022/03/22 03:17:39;;;;;;;81.00;48.00;;;;;;;-0.63;60.08;101011.21;104975;1268;61093;-71
2022/03/22 03:20:07;;;;;;;78.10;48.90;;;;;;;-0.65;60.04;101010.33;104685;1272;72272;-70
2022/03/22 03:22:34;;;;;;;97.20;57.30;;;;;;;-0.71;60.09;101012.36;105159;1272;70903;-69
2022/03/22 03:25:00;;;;;;;97.20;56.90;;;;;;;-0.83;60.20;101011.86;104991;1268;61249;-70
2022/03/22 03:27:27;;;;;;;103.00;61.00;;;;;;;-0.94;60.52;101015.05;105284;1268;61310;-70
2022/03/22 03:29:53;;;;;;;97.70;59.20;;;;;;;-1.04;60.64;101015.11;105322;1268;61337;-70
2022/03/22 03:32:20;;;;;;;99.80;60.40;;;;;;;-1.14;60.84;101021.60;104943;1268;61317;-70
2022/03/22 03:34:47;;;;;;;85.10;51.80;;;;;;;-1.23;61.08;101026.89;105008;1268;69324;-70
2022/03/22 03:37:13;;;;;;;82.10;50.90;;;;;;;-1.28;61.08;101022.96;104958;1268;73212;-69
2022/03/22 03:39:40;;;;;;;87.50;54.40;;;;;;;-1.32;61.30;101021.36;104836;1271;61284;-70
2022/03/22 03:42:07;;;;;;;79.90;51.50;;;;;;;-1.33;61.44;101020.82;105117;1268;61188;-70
2022/03/22 03:47:25;;;;;;;88.70;52.80;;;;;;;-1.29;61.83;101023.48;105051;1268;69200;-69
2022/03/22 03:49:54;;;;;;;90.60;54.10;;;;;;;-1.33;61.91;101023.80;105412;1268;73501;-69
2022/03/22 03:52:26;;;;;;;88.60;54.60;;;;;;;-1.39;62.04;101024.40;104842;1271;61297;-70
2022/03/22 03:54:54;;;;;;;97.20;56.40;;;;;;;-1.48;62.28;101025.15;105511;1268;61371;-70
2022/03/22 03:57:22;;;;;;;86.30;54.20;;;;;;;-1.56;62.31;101028.85;104999;1268;75400;-69
2022/03/22 03:59:49;;;;;;;90.80;54.00;;;;;;;-1.61;62.26;101027.72;104977;1268;70520;-71
2022/03/22 04:02:16;;;;;;;89.40;52.50;;;;;;;-1.67;62.48;101027.46;105046;1268;73314;-70
2022/03/22 04:04:47;;;;;;;86.60;52.90;;;;;;;-1.74;62.60;101027.69;105100;1268;61156;-70
2022/03/22 04:07:14;;;;;;;89.10;53.90;;;;;;;-1.81;62.75;101029.52;104307;1268;1002747;-73
2022/03/22 04:09:41;;;;;;;94.10;55.30;;;;;;;-1.86;62.92;101036.39;104788;1272;72980;-69
2022/03/22 04:12:07;;;;;;;96.50;55.60;;;;;;;-1.91;63.36;101034.38;104913;1268;69315;-71
2022/03/22 04:14:34;;;;;;;95.40;55.80;;;;;;;-1.98;63.38;101036.03;104797;1272;74208;-70
2022/03/22 04:17:01;;;;;;;95.60;54.30;;;;;;;-2.03;63.62;101036.46;104916;1268;61500;-70
2022/03/22 04:19:28;;;;;;;91.30;53.90;;;;;;;-2.07;63.81;101039.88;104922;1268;61324;-70
2022/03/22 04:21:56;;;;;;;93.40;54.70;;;;;;;-2.11;63.97;101038.24;104704;1272;76558;-69
2022/03/22 04:24:22;;;;;;;94.20;57.40;;;;;;;-2.14;64.18;101036.79;104917;1268;69225;-69
2022/03/22 04:26:49;;;;;;;102.10;61.50;;;;;;;-2.16;64.25;101038.84;104909;1268;73265;-69
2022/03/22 04:34:48;;;;;;;96.90;60.40;;;;;;;-2.10;65.15;101042.77;104940;1268;76615;-70
2022/03/22 04:37:16;;;;;;;98.00;59.50;;;;;;;-2.05;65.30;101043.91;104940;1268;69319;-68
2022/03/22 04:39:45;;;;;;;102.00;61.40;;;;;;;-2.00;65.20;101047.83;105497;1268;73319;-69
2022/03/22 04:42:14;;;;;;;102.60;60.70;;;;;;;-1.96;65.21;101050.33;105079;1268;61302;-70
2022/03/22 04:44:41;;;;;;;94.50;61.70;;;;;;;-1.91;65.22;101051.29;105016;1268;61583;-70
2022/03/22 04:47:08;;;;;;;97.00;60.80;;;;;;;-1.86;65.41;101052.95;104904;1268;75601;-69
2022/03/22 04:49:35;;;;;;;101.80;67.20;;;;;;;-1.82;65.53;101055.27;105301;1268;69210;-69
2022/03/22 04:57:32;;;;;;;115.10;72.40;;;;;;;-1.79;65.75;101061.59;105005;1268;61251;-70
2022/03/22 04:59:59;;;;;;;118.80;74.70;;;;;;;-1.79;65.79;101062.30;104911;1272;76205;-69
2022/03/22 05:02:25;;;;;;;127.50;82.20;;;;;;;-1.78;65.72;101066.48;105000;1268;69952;-69
2022/03/22 05:04:52;;;;;;;101.90;66.00;;;;;;;-1.73;65.80;101068.50;104658;1274;72108;-69
2022/03/22 05:07:18;;;;;;;101.20;63.50;;;;;;;-1.47;65.28;101065.23;104955;1268;61393;-70
2022/03/22 05:09:45;;;;;;;101.60;66.20;;;;;;;-1.24;64.91;101061.58;105146;1268;61292;-71
2022/03/22 05:12:13;;;;;;;105.10;67.20;;;;;;;-1.01;64.65;101063.98;105270;1268;61237;-71
2022/03/22 05:14:42;;;;;;;116.50;77.60;;;;;;;-0.80;64.27;101063.05;105288;1268;69974;-70
2022/03/22 05:17:11;;;;;;;120.20;81.00;;;;;;;-0.53;64.41;101065.63;104953;1268;74425;-69
2022/03/22 05:19:39;;;;;;;115.60;81.20;;;;;;;-0.28;64.18;101066.61;105078;1268;61591;-71
2022/03/22 05:22:06;;;;;;;130.30;89.20;;;;;;;-0.03;63.91;101068.09;105341;1268;62092;-71
2022/03/22 05:24:33;;;;;;;129.40;88.50;;;;;;;0.18;63.68;101068.26;105303;1268;75329;-71
2022/03/22 05:27:02;;;;;;;123.70;88.50;;;;;;;0.41;63.62;101066.17;105295;1268;69229;-70
2022/03/22 05:29:29;;;;;;;133.60;92.00;;;;;;;0.60;63.40;101064.05;105332;1268;74435;-71
2022/03/22 05:31:56;;;;;;;126.70;87.00;;;;;;;0.84;63.18;101070.85;105167;1268;61256;-71
2022/03/22 05:34:22;;;;;;;125.30;85.80;;;;;;;1.08;62.89;101071.17;104915;1268;61166;-71
2022/03/22 05:36:49;;;;;;;115.80;79.10;;;;;;;1.26;62.56;101066.35;105266;1268;75097;-71
2022/03/22 05:39:16;;;;;;;112.70;76.40;;;;;;;1.42;62.16;101068.34;105082;1271;68452;-70
2022/03/22 05:41:44;;;;;;;114.40;77.90;;;;;;;1.51;61.98;101070.31;105399;1268;72577;-71
2022/03/22 05:44:13;;;;;;;106.00;76.00;;;;;;;1.66;61.72;101066.67;105279;1268;61313;-71
2022/03/22 05:46:42;;;;;;;109.20;77.30;;;;;;;1.84;61.41;101060.05;105439;1267;61275;-70
2022/03/22 05:49:13;;;;;;;113.60;74.20;;;;;;;2.02;61.16;101061.66;105319;1268;75204;-71
2022/03/22 05:51:40;;;;;;;113.90;72.10;;;;;;;2.31;60.96;101064.48;105049;1268;69141;-70
2022/03/22 05:54:07;;;;;;;108.90;73.20;;;;;;;2.49;60.24;101065.88;105297;1268;74410;-70
2022/03/22 05:56:33;;;;;;;109.60;74.00;;;;;;;2.62;59.94;101069.73;105278;1268;61313;-71
2022/03/22 05:59:00;;;;;;;110.30;71.70;;;;;;;2.51;59.97;101069.73;105108;1269;61201;-71
2022/03/22 06:01:28;;;;;;;109.90;74.90;;;;;;;2.40;60.37;101072.20;105287;1268;61314;-72
2022/03/22 06:03:54;;;;;;;117.30;80.90;;;;;;;2.37;60.58;101076.58;105325;1268;70217;-70
2022/03/22 06:06:21;;;;;;;120.90;82.80;;;;;;;2.37;60.53;101073.60;105309;1268;72601;-71
2022/03/22 06:08:49;;;;;;;118.30;80.10;;;;;;;2.38;60.63;101077.46;105172;1268;61290;-70
2022/03/22 06:11:17;;;;;;;112.50;78.90;;;;;;;2.36;60.55;101079.91;105131;1268;61316;-70
2022/03/22 06:13:44;;;;;;;119.00;81.30;;;;;;;2.32;60.47;101079.92;104643;1271;74282;-70
2022/03/22 06:16:11;;;;;;;111.60;79.20;;;;;;;2.30;60.58;101082.20;104945;1268;70061;-69
2022/03/22 06:18:37;;;;;;;118.10;78.80;;;;;;;2.28;60.61;101079.75;104953;1268;74461;-72
2022/03/22 06:21:04;;;;;;;106.90;77.00;;;;;;;2.29;60.52;101080.10;105242;1268;61144;-70
2022/03/22 06:23:31;;;;;;;107.90;74.30;;;;;;;2.33;60.39;101079.58;105015;1268;62094;-69
2022/03/22 06:25:57;;;;;;;106.20;74.80;;;;;;;2.38;60.30;101075.54;105320;1268;76379;-74
2022/03/22 06:28:24;;;;;;;111.60;75.60;;;;;;;2.43;60.12;101078.52;105052;1268;61266;-71
2022/03/22 06:30:51;;;;;;;113.00;75.60;;;;;;;2.47;59.93;101081.16;105290;1268;61285;-70
2022/03/22 06:33:18;;;;;;;114.70;77.60;;;;;;;2.53;59.81;101083.09;105311;1268;61365;-71
2022/03/22 06:35:46;;;;;;;113.30;75.10;;;;;;;2.58;59.81;101084.29;105323;1268;61236;-71
2022/03/22 06:38:13;;;;;;;112.00;75.30;;;;;;;2.64;59.83;101088.85;105343;1268;76033;-70
2022/03/22 06:40:40;;;;;;;116.90;77.00;;;;;;;2.70;59.90;101089.91;105345;1268;69467;-72
2022/03/22 06:43:10;;;;;;;109.30;75.00;;;;;;;2.75;60.04;101085.34;105264;1268;73038;-72
2022/03/22 06:45:37;;;;;;;107.20;73.90;;;;;;;2.80;60.20;101087.09;105464;1268;61370;-71
2022/03/22 06:48:08;;;;;;;103.80;71.70;;;;;;;2.88;60.28;101088.66;105307;1268;61353;-71
2022/03/22 06:50:36;;;;;;;105.70;69.80;;;;;;;2.97;60.17;101085.83;105031;1268;75286;-71
2022/03/22 06:53:05;;;;;;;99.10;71.60;;;;;;;3.06;60.24;101084.05;105569;1268;71109;-72
2022/03/22 06:55:32;;;;;;;99.40;70.90;;;;;;;3.17;60.26;101084.73;105306;1268;73395;-70
2022/03/22 06:58:00;;;;;;;97.70;64.60;;;;;;;3.25;60.33;101083.65;105177;1268;61306;-71
2022/03/22 07:00:31;;;;;;;78.00;53.80;;;;;;;3.32;60.06;101086.95;105284;1268;61229;-72
2022/03/22 07:03:00;;;;;;;50.60;34.30;;;;;;;3.42;58.80;101088.32;105508;1268;76271;-70
2022/03/22 07:05:28;;;;;;;54.70;33.60;;;;;;;3.54;57.92;101089.69;105292;1268;69534;-70
2022/03/22 07:07:56;;;;;;;47.30;31.60;;;;;;;3.69;57.20;101094.35;104919;1268;74965;-70
2022/03/22 07:10:23;;;;;;;52.40;34.60;;;;;;;3.83;56.88;101091.98;104936;1268;62739;-71
2022/03/22 07:12:53;;;;;;;46.90;32.50;;;;;;;3.96;56.53;101088.74;105317;1268;61889;-70
2022/03/22 07:15:27;;;;;;;47.80;32.00;;;;;;;4.09;56.08;101082.69;105119;1268;76327;-69
2022/03/22 07:17:54;;;;;;;47.30;33.10;;;;;;;4.23;55.66;101085.58;105104;1268;69118;-70
2022/03/22 07:20:21;;;;;;;51.70;35.10;;;;;;;4.35;55.18;101085.67;105173;1268;72785;-70
2022/03/22 07:22:48;;;;;;;53.20;36.30;;;;;;;4.48;54.28;101082.04;105287;1268;61151;-70
2022/03/22 07:25:14;;;;;;;52.70;36.20;;;;;;;4.60;54.09;101083.86;105314;1268;61205;-70
2022/03/22 07:27:42;;;;;;;61.90;40.80;;;;;;;4.72;53.79;101088.16;105702;1268;75355;-71
2022/03/22 07:30:29;;;;;;;65.50;41.80;;;;;;;4.83;53.51;101090.16;105237;1268;70125;-71
2022/03/22 07:32:56;;;;;;;73.90;44.10;;;;;;;4.93;53.02;101091.83;104904;1274;73238;-71
2022/03/22 07:35:23;;;;;;;72.50;44.40;;;;;;;5.02;53.14;101094.02;105001;1271;61452;-70
2022/03/22 07:37:49;;;;;;;70.50;43.40;;;;;;;5.15;53.00;101094.78;104679;1274;61320;-70
2022/03/22 07:40:18;;;;;;;64.60;43.40;;;;;;;5.26;52.63;101095.36;104654;1271;76141;-70
2022/03/22 07:42:45;;;;;;;68.50;44.80;;;;;;;5.37;52.64;101093.99;104680;1271;70361;-70
2022/03/22 07:45:12;;;;;;;64.00;45.30;;;;;;;5.46;52.37;101093.52;104864;1274;72922;-72
2022/03/22 07:47:40;;;;;;;53.70;38.70;;;;;;;5.53;52.04;101092.03;104820;1274;61466;-70
2022/03/22 07:53:12;;;;;;;54.30;37.20;;;;;;;5.64;51.27;101095.06;104748;1277;74888;-70
2022/03/22 07:55:43;;;;;;;51.10;35.00;;;;;;;5.76;51.18;101092.97;104485;1277;61636;-71
2022/03/22 07:58:11;;;;;;;51.90;36.00;;;;;;;5.90;50.92;101091.37;105022;1271;73408;-71
2022/03/22 08:00:41;;;;;;;51.20;36.80;;;;;;;6.05;50.45;101095.42;105116;1271;61578;-72
2022/03/22 08:03:10;;;;;;;57.70;40.50;;;;;;;6.14;50.21;101091.05;104646;1272;61167;-70
2022/03/22 08:05:39;;;;;;;54.50;39.30;;;;;;;6.23;50.10;101089.70;105215;1271;76563;-71
2022/03/22 08:08:06;;;;;;;54.80;38.30;;;;;;;6.35;49.97;101083.85;105059;1271;70241;-69
2022/03/22 08:10:32;;;;;;;57.50;38.70;;;;;;;6.47;49.86;101079.41;104734;1268;73251;-70
2022/03/22 08:13:00;;;;;;;47.80;35.30;;;;;;;6.58;49.44;101077.45;105226;1268;61228;-70
2022/03/22 08:15:27;;;;;;;54.10;38.10;;;;;;;6.65;48.97;101084.40;104922;1268;61169;-70
2022/03/22 08:17:55;;;;;;;44.10;33.50;;;;;;;6.73;48.91;101080.38;105065;1268;75289;-69
2022/03/22 08:20:22;;;;;;;46.80;32.10;;;;;;;6.82;48.24;101075.10;105337;1268;70113;-72
2022/03/22 08:22:51;;;;;;;46.70;33.70;;;;;;;6.91;47.96;101075.98;105313;1268;73516;-71
2022/03/22 08:25:23;;;;;;;48.00;33.90;;;;;;;7.00;47.77;101077.05;105308;1268;61260;-71
2022/03/22 08:27:54;;;;;;;47.50;31.20;;;;;;;7.10;47.50;101073.85;105261;1268;61524;-72
2022/03/22 08:30:21;;;;;;;48.40;31.70;;;;;;;7.20;47.36;101074.03;105450;1268;76223;-70
2022/03/22 08:32:49;;;;;;;43.90;30.80;;;;;;;7.31;47.18;101071.84;105414;1268;68747;-71
2022/03/22 08:35:17;;;;;;;48.70;34.20;;;;;;;7.45;46.59;101073.70;105427;1267;74926;-70
2022/03/22 08:37:44;;;;;;;52.50;36.20;;;;;;;7.54;46.52;101073.33;105131;1268;61324;-71
2022/03/22 08:40:16;;;;;;;52.40;37.70;;;;;;;7.66;46.34;101071.48;105347;1268;61250;-72
2022/03/22 08:42:45;;;;;;;55.40;37.90;;;;;;;7.79;46.23;101069.97;104911;1268;76535;-72
2022/03/22 08:45:14;;;;;;;55.50;40.70;;;;;;;7.93;46.01;101069.48;105295;1268;70246;-71
2022/03/22 08:47:42;;;;;;;61.20;42.60;;;;;;;8.05;45.91;101066.02;105337;1268;73507;-72
2022/03/22 08:50:11;;;;;;;50.10;36.70;;;;;;;8.14;45.57;101068.28;105439;1268;61554;-70
2022/03/22 08:52:38;;;;;;;50.50;35.70;;;;;;;8.25;45.24;101064.13;104965;1268;61253;-70
2022/03/22 08:55:07;;;;;;;45.10;32.60;;;;;;;8.39;44.97;101059.01;105248;1268;75266;-72
2022/03/22 08:57:35;;;;;;;46.50;33.60;;;;;;;8.52;44.18;101059.06;105327;1268;68202;-71
2022/03/22 09:00:08;;;;;;;45.30;33.00;;;;;;;8.60;43.51;101058.33;105325;1268;74196;-71
2022/03/22 09:02:40;;;;;;;44.60;31.30;;;;;;;8.67;43.48;101055.66;104955;1268;61279;-70
2022/03/22 09:07:57;;;;;;;42.50;29.90;;;;;;;8.88;42.88;101049.95;104971;1268;75379;-69
2022/03/22 09:10:25;;;;;;;39.30;29.50;;;;;;;8.99;42.47;101049.48;105003;1268;69371;-71
2022/03/22 09:12:52;;;;;;;46.30;30.50;;;;;;;9.11;42.45;101045.07;104763;1268;74130;-70
2022/03/22 09:15:20;;;;;;;40.70;30.50;;;;;;;9.26;42.32;101041.09;104936;1267;61383;-70
2022/03/22 09:17:47;;;;;;;41.50;30.90;;;;;;;9.38;41.95;101043.77;105203;1268;61388;-69
2022/03/22 09:20:15;;;;;;;41.00;31.10;;;;;;;9.49;41.78;101039.90;105457;1268;76299;-70
2022/03/22 09:22:44;;;;;;;42.50;30.20;;;;;;;9.59;41.17;101039.79;105080;1268;70361;-69
2022/03/22 09:25:12;;;;;;;39.80;30.50;;;;;;;9.64;41.02;101036.60;105345;1268;74859;-71
2022/03/22 09:27:41;;;;;;;37.40;29.90;;;;;;;9.74;40.80;101034.91;105195;1268;61419;-70
2022/03/22 09:30:08;;;;;;;39.60;29.50;;;;;;;9.85;41.17;101035.09;104986;1268;62200;-71
2022/03/22 09:32:36;;;;;;;43.50;30.50;;;;;;;10.02;41.26;101029.39;105423;1268;75364;-72
2022/03/22 09:35:07;;;;;;;40.70;30.50;;;;;;;10.22;41.22;101027.70;105409;1268;71103;-71
2022/03/22 09:37:34;;;;;;;44.90;33.20;;;;;;;10.37;40.90;101026.52;105226;1268;71334;-72
2022/03/22 09:40:01;;;;;;;43.50;31.60;;;;;;;10.51;40.97;101023.04;105026;1267;61255;-70
2022/03/22 09:42:28;;;;;;;42.90;32.30;;;;;;;10.62;40.39;101021.40;105411;1268;61516;-70
2022/03/22 09:44:55;;;;;;;41.60;31.30;;;;;;;10.64;39.80;101021.88;105343;1268;61253;-72
2022/03/22 09:47:22;;;;;;;35.30;28.60;;;;;;;10.64;39.70;101018.29;105387;1268;69206;-72
2022/03/22 09:49:49;;;;;;;41.00;29.30;;;;;;;10.70;39.28;101016.66;105341;1268;72158;-72
2022/03/22 09:52:16;;;;;;;39.50;29.00;;;;;;;10.79;39.12;101013.14;105381;1268;61300;-71
2022/03/22 09:54:42;;;;;;;37.80;29.70;;;;;;;10.90;38.82;101009.92;105355;1268;61211;-69
2022/03/22 09:57:09;;;;;;;38.30;29.00;;;;;;;10.98;38.61;101007.48;104992;1268;61192;-70
2022/03/22 09:59:36;;;;;;;40.90;30.70;;;;;;;11.07;38.52;101001.99;105251;1268;69148;-72
2022/03/22 10:02:04;;;;;;;34.10;26.90;;;;;;;11.20;38.21;101002.42;105406;1268;74373;-70
2022/03/22 10:04:43;;;;;;;39.20;26.20;;;;;;;11.27;37.74;100997.15;105213;1268;61367;-70
2022/03/22 10:07:21;;;;;;;38.10;27.00;;;;;;;11.34;37.68;100993.69;105287;1269;61172;-72
2022/03/22 10:09:53;;;;;;;35.70;26.80;;;;;;;11.49;37.86;100992.26;105440;1268;75867;-69
2022/03/22 10:12:37;;;;;;;38.50;28.60;;;;;;;11.61;37.44;100986.80;105167;1268;70343;-71
2022/03/22 10:15:11;;;;;;;40.20;27.80;;;;;;;11.66;37.02;100987.84;105423;1268;73347;-73
2022/03/22 10:17:38;;;;;;;35.30;27.90;;;;;;;11.69;36.90;100982.56;105439;1268;62019;-70
2022/03/22 10:20:07;;;;;;;40.50;27.80;;;;;;;11.76;36.72;100979.23;105492;1268;61987;-70
2022/03/22 10:22:36;;;;;;;38.10;26.70;;;;;;;11.85;36.80;100976.77;105490;1268;75271;-72
2022/03/22 10:25:05;;;;;;;27.50;22.00;;;;;;;11.97;36.37;100975.73;105337;1268;68304;-73
2022/03/22 10:27:34;;;;;;;25.50;20.70;;;;;;;12.11;36.27;100971.80;105470;1268;73966;-70
2022/03/22 10:30:04;;;;;;;28.20;20.90;;;;;;;12.27;35.78;100973.95;105170;1268;61448;-71
2022/03/22 10:32:33;;;;;;;27.90;21.50;;;;;;;12.36;35.36;100970.40;105428;1268;61255;-73
2022/03/22 10:35:36;;;;;;;24.80;20.50;;;;;;;12.39;34.88;100968.48;105497;1268;76064;-72
2022/03/22 10:38:06;;;;;;;23.80;18.50;;;;;;;12.48;35.22;100968.28;104481;1277;70430;-70
2022/03/22 10:40:43;;;;;;;25.70;19.60;;;;;;;12.64;35.48;100962.23;104931;1277;74440;-71
2022/03/22 10:43:15;;;;;;;27.70;20.60;;;;;;;12.79;35.04;100959.44;104827;1277;61435;-70
2022/03/22 10:45:47;;;;;;;27.50;21.70;;;;;;;12.84;34.26;100960.26;104508;1277;62079;-70
2022/03/22 10:48:19;;;;;;;27.40;21.60;;;;;;;12.83;34.34;100958.73;104779;1276;75091;-69
2022/03/22 10:50:47;;;;;;;29.90;22.70;;;;;;;12.84;34.33;100955.08;104508;1277;68924;-71
2022/03/22 10:53:22;;;;;;;26.80;20.30;;;;;;;12.93;34.47;100952.90;104461;1277;73203;-70
2022/03/22 10:55:49;;;;;;;29.30;21.30;;;;;;;12.99;33.77;100952.48;104868;1277;61387;-69
2022/03/22 10:58:21;;;;;;;26.60;20.00;;;;;;;13.02;33.69;100949.64;104768;1277;61422;-72
2022/03/22 11:00:49;;;;;;;27.50;20.20;;;;;;;13.09;33.44;100948.06;104967;1277;76864;-70
2022/03/22 11:03:17;;;;;;;24.20;19.40;;;;;;;13.15;33.52;100945.10;104693;1277;70039;-70
2022/03/22 11:05:50;;;;;;;24.40;18.90;;;;;;;13.24;33.69;100938.80;104901;1277;73302;-73
2022/03/22 11:08:22;;;;;;;25.40;20.60;;;;;;;13.34;33.33;100941.59;105058;1277;61301;-71
2022/03/22 11:10:51;;;;;;;23.60;19.30;;;;;;;13.43;33.39;100938.85;104767;1277;61276;-71
2022/03/22 11:13:17;;;;;;;22.80;18.90;;;;;;;13.54;33.39;100928.15;104993;1269;75771;-71
2022/03/22 11:15:48;;;;;;;23.20;18.00;;;;;;;13.67;33.39;100925.02;105445;1268;61342;-72
2022/03/22 11:18:18;;;;;;;22.90;17.40;;;;;;;13.76;33.29;100919.35;104882;1268;74169;-71
2022/03/22 11:20:55;;;;;;;23.60;16.60;;;;;;;13.87;32.97;100918.48;104887;1268;61375;-70
2022/03/22 11:23:24;;;;;;;22.90;16.50;;;;;;;13.98;33.19;100917.02;105191;1268;61268;-72
2022/03/22 11:25:51;;;;;;;17.90;15.30;;;;;;;14.06;32.77;100912.73;105297;1268;76815;-71
2022/03/22 11:28:20;;;;;;;21.00;15.50;;;;;;;14.12;32.69;100908.65;105120;1268;70379;-71
2022/03/22 11:30:48;;;;;;;17.70;14.70;;;;;;;14.17;32.48;100905.15;104879;1268;72619;-70
2022/03/22 11:36:13;;;;;;;17.20;15.30;;;;;;;14.20;31.17;100901.61;105234;1268;61288;-71
2022/03/22 11:38:48;;;;;;;18.20;15.00;;;;;;;14.18;30.81;100899.20;105322;1268;75492;-70